sensor_id;sensor_type;location;lat;lon;timestamp;pressure;altitude;pressure_sealevel;temperature;humidity
25664;BME280;13522;50.018;20.014;2023-04-06T00:01:14;99264.03;;;0.34;87.44
25664;BME280;13522;50.018;20.014;2023-04-06T00:04:27;99265.73;;;0.35;86.51
25664;BME280;13522;50.018;20.014;2023-04-06T00:13:39;99272.91;;;0.30;87.09
25664;BME280;13522;50.018;20.014;2023-04-06T00:16:51;99268.96;;;0.22;88.23
25664;BME280;13522;50.018;20.014;2023-04-06T00:20:05;99270.83;;;0.18;87.50
25664;BME280;13522;50.018;20.014;2023-04-06T00:23:22;99261.17;;;0.20;87.41
25664;BME280;13522;50.018;20.014;2023-04-06T00:26:34;99256.99;;;0.16;88.99
25664;BME280;13522;50.018;20.014;2023-04-06T00:29:48;99257.51;;;0.24;87.41
25664;BME280;13522;50.018;20.014;2023-04-06T00:33:00;99260.27;;;0.21;87.37
25664;BME280;13522;50.018;20.014;2023-04-06T00:36:12;99255.31;;;0.15;88.55
25664;BME280;13522;50.018;20.014;2023-04-06T00:39:25;99262.36;;;0.13;88.72
25664;BME280;13522;50.018;20.014;2023-04-06T00:42:37;99252.55;;;0.18;87.31
25664;BME280;13522;50.018;20.014;2023-04-06T00:49:09;99240.42;;;0.17;86.59
25664;BME280;13522;50.018;20.014;2023-04-06T00:52:22;99247.33;;;0.18;87.29
25664;BME280;13522;50.018;20.014;2023-04-06T00:55:34;99244.72;;;0.18;86.31
25664;BME280;13522;50.018;20.014;2023-04-06T00:58:48;99245.65;;;0.17;87.14
25664;BME280;13522;50.018;20.014;2023-04-06T01:02:01;99244.87;;;0.15;86.95
25664;BME280;13522;50.018;20.014;2023-04-06T01:05:16;99244.94;;;0.14;86.62
25664;BME280;13522;50.018;20.014;2023-04-06T01:08:33;99243.42;;;0.08;86.89
25664;BME280;13522;50.018;20.014;2023-04-06T01:11:50;99241.73;;;0.07;86.75
25664;BME280;13522;50.018;20.014;2023-04-06T01:15:07;99220.59;;;-0.07;86.86
25664;BME280;13522;50.018;20.014;2023-04-06T01:18:27;99242.94;;;0.00;87.00
25664;BME280;13522;50.018;20.014;2023-04-06T01:24:44;99235.81;;;-0.17;88.03
25664;BME280;13522;50.018;20.014;2023-04-06T01:27:59;99238.61;;;-0.21;88.70
25664;BME280;13522;50.018;20.014;2023-04-06T01:35:01;99233.39;;;-0.21;87.08
25664;BME280;13522;50.018;20.014;2023-04-06T01:38:15;99223.09;;;-0.24;87.80
25664;BME280;13522;50.018;20.014;2023-04-06T01:41:28;99227.45;;;-0.25;88.13
25664;BME280;13522;50.018;20.014;2023-04-06T01:44:41;99220.67;;;-0.29;88.15
25664;BME280;13522;50.018;20.014;2023-04-06T01:47:55;99212.39;;;-0.38;89.39
25664;BME280;13522;50.018;20.014;2023-04-06T01:51:07;99220.67;;;-0.29;89.71
25664;BME280;13522;50.018;20.014;2023-04-06T01:54:29;99219.89;;;-0.31;89.06
25664;BME280;13522;50.018;20.014;2023-04-06T02:09:47;99220.58;;;-0.47;91.79
25664;BME280;13522;50.018;20.014;2023-04-06T02:22:00;99215.69;;;-0.55;91.39
25664;BME280;13522;50.018;20.014;2023-04-06T02:25:13;99212.23;;;-0.55;90.86
25664;BME280;13522;50.018;20.014;2023-04-06T02:28:26;99210.87;;;-0.64;90.90
25664;BME280;13522;50.018;20.014;2023-04-06T02:31:39;99209.47;;;-0.72;92.07
25664;BME280;13522;50.018;20.014;2023-04-06T02:37:52;99218.22;;;-0.73;92.18
25664;BME280;13522;50.018;20.014;2023-04-06T02:50:05;99217.14;;;-0.90;93.75
25664;BME280;13522;50.018;20.014;2023-04-06T02:56:19;99219.74;;;-0.90;94.61
25664;BME280;13522;50.018;20.014;2023-04-06T02:59:32;99221.56;;;-0.92;94.14
25664;BME280;13522;50.018;20.014;2023-04-06T03:02:46;99221.32;;;-0.85;94.10
25664;BME280;13522;50.018;20.014;2023-04-06T03:08:59;99229.25;;;-0.89;94.01
25664;BME280;13522;50.018;20.014;2023-04-06T03:18:12;99219.61;;;-0.87;93.73
25664;BME280;13522;50.018;20.014;2023-04-06T03:33:31;99223.38;;;-0.94;93.07
25664;BME280;13522;50.018;20.014;2023-04-06T03:36:43;99234.70;;;-0.95;92.74
25664;BME280;13522;50.018;20.014;2023-04-06T03:39:57;99232.78;;;-0.90;92.11
25664;BME280;13522;50.018;20.014;2023-04-06T03:43:10;99232.64;;;-0.87;91.62
25664;BME280;13522;50.018;20.014;2023-04-06T03:49:22;99227.42;;;-0.87;91.08
25664;BME280;13522;50.018;20.014;2023-04-06T03:52:35;99229.14;;;-0.85;91.08
25664;BME280;13522;50.018;20.014;2023-04-06T03:55:48;99227.56;;;-0.90;90.66
25664;BME280;13522;50.018;20.014;2023-04-06T03:59:01;99220.64;;;-0.91;90.91
25664;BME280;13522;50.018;20.014;2023-04-06T04:02:13;99226.47;;;-0.84;90.95
25664;BME280;13522;50.018;20.014;2023-04-06T04:05:26;99228.84;;;-1.00;92.49
25664;BME280;13522;50.018;20.014;2023-04-06T04:08:38;99225.98;;;-0.94;91.68
25664;BME280;13522;50.018;20.014;2023-04-06T04:11:51;99228.46;;;-0.91;90.88
25664;BME280;13522;50.018;20.014;2023-04-06T04:15:05;99235.18;;;-0.85;90.83
25664;BME280;13522;50.018;20.014;2023-04-06T04:18:18;99229.69;;;-0.77;89.81
25664;BME280;13522;50.018;20.014;2023-04-06T04:21:31;99225.19;;;-0.74;89.98
25664;BME280;13522;50.018;20.014;2023-04-06T04:24:45;99219.83;;;-0.71;90.22
25664;BME280;13522;50.018;20.014;2023-04-06T04:27:57;99225.73;;;-0.66;90.14
25664;BME280;13522;50.018;20.014;2023-04-06T04:31:10;99225.52;;;-0.61;89.27
25664;BME280;13522;50.018;20.014;2023-04-06T04:34:25;99223.77;;;-0.61;90.00
25664;BME280;13522;50.018;20.014;2023-04-06T04:37:40;99224.63;;;-0.60;89.84
25664;BME280;13522;50.018;20.014;2023-04-06T04:40:53;99220.19;;;-0.58;89.50
25664;BME280;13522;50.018;20.014;2023-04-06T04:44:05;99222.55;;;-0.52;89.46
25664;BME280;13522;50.018;20.014;2023-04-06T04:47:18;99221.44;;;-0.47;88.42
25664;BME280;13522;50.018;20.014;2023-04-06T04:50:31;99218.50;;;-0.39;87.62
25664;BME280;13522;50.018;20.014;2023-04-06T04:53:44;99211.27;;;-0.33;87.13
25664;BME280;13522;50.018;20.014;2023-04-06T04:56:57;99218.77;;;-0.25;86.65
25664;BME280;13522;50.018;20.014;2023-04-06T05:00:16;99223.62;;;-0.16;86.20
25664;BME280;13522;50.018;20.014;2023-04-06T05:03:30;99218.18;;;-0.12;85.96
25664;BME280;13522;50.018;20.014;2023-04-06T05:06:46;99215.27;;;-0.04;85.42
25664;BME280;13522;50.018;20.014;2023-04-06T05:09:58;99211.45;;;0.03;86.90
25664;BME280;13522;50.018;20.014;2023-04-06T05:13:13;99211.89;;;0.13;85.34
25664;BME280;13522;50.018;20.014;2023-04-06T05:16:26;99210.06;;;0.15;85.82
25664;BME280;13522;50.018;20.014;2023-04-06T05:19:38;99212.48;;;0.19;86.05
25664;BME280;13522;50.018;20.014;2023-04-06T05:22:52;99208.55;;;0.29;85.83
25664;BME280;13522;50.018;20.014;2023-04-06T05:26:06;99214.13;;;0.40;84.66
25664;BME280;13522;50.018;20.014;2023-04-06T05:29:19;99209.67;;;0.42;84.33
25664;BME280;13522;50.018;20.014;2023-04-06T05:32:32;99216.34;;;0.49;83.44
25664;BME280;13522;50.018;20.014;2023-04-06T05:35:45;99202.26;;;0.52;83.10
25664;BME280;13522;50.018;20.014;2023-04-06T05:38:57;99200.42;;;0.54;82.98
25664;BME280;13522;50.018;20.014;2023-04-06T05:42:14;99199.10;;;0.45;82.20
25664;BME280;13522;50.018;20.014;2023-04-06T05:45:31;99204.61;;;0.39;81.88
25664;BME280;13522;50.018;20.014;2023-04-06T05:48:44;99207.61;;;0.30;81.48
25664;BME280;13522;50.018;20.014;2023-04-06T05:51:57;99205.31;;;0.43;81.02
25664;BME280;13522;50.018;20.014;2023-04-06T05:55:11;99197.11;;;0.50;80.25
25664;BME280;13522;50.018;20.014;2023-04-06T05:58:25;99204.55;;;0.59;81.26
25664;BME280;13522;50.018;20.014;2023-04-06T06:01:39;99207.20;;;0.58;80.80
25664;BME280;13522;50.018;20.014;2023-04-06T06:04:51;99207.16;;;0.59;80.04
25664;BME280;13522;50.018;20.014;2023-04-06T06:08:04;99205.61;;;0.55;79.42
25664;BME280;13522;50.018;20.014;2023-04-06T06:11:17;99205.16;;;0.64;78.49
25664;BME280;13522;50.018;20.014;2023-04-06T06:14:30;99199.73;;;0.69;77.73
25664;BME280;13522;50.018;20.014;2023-04-06T06:17:43;99203.54;;;0.80;77.52
25664;BME280;13522;50.018;20.014;2023-04-06T06:20:55;99199.21;;;0.79;77.29
25664;BME280;13522;50.018;20.014;2023-04-06T06:24:09;99200.19;;;0.96;78.18
25664;BME280;13522;50.018;20.014;2023-04-06T06:27:21;99198.80;;;0.88;77.36
25664;BME280;13522;50.018;20.014;2023-04-06T06:30:33;99199.23;;;1.15;77.81
25664;BME280;13522;50.018;20.014;2023-04-06T06:33:46;99198.16;;;1.19;77.00
25664;BME280;13522;50.018;20.014;2023-04-06T06:36:59;99193.95;;;1.17;75.17
25664;BME280;13522;50.018;20.014;2023-04-06T06:40:13;99197.17;;;1.22;74.63
25664;BME280;13522;50.018;20.014;2023-04-06T06:43:26;99196.66;;;1.32;74.95
25664;BME280;13522;50.018;20.014;2023-04-06T06:46:40;99198.72;;;1.26;75.29
25664;BME280;13522;50.018;20.014;2023-04-06T06:49:52;99189.80;;;1.30;75.23
25664;BME280;13522;50.018;20.014;2023-04-06T06:53:05;99191.04;;;1.40;75.79
25664;BME280;13522;50.018;20.014;2023-04-06T06:56:17;99189.75;;;1.48;76.17
25664;BME280;13522;50.018;20.014;2023-04-06T06:59:31;99186.50;;;1.43;74.85
25664;BME280;13522;50.018;20.014;2023-04-06T07:02:44;99195.80;;;1.32;74.51
25664;BME280;13522;50.018;20.014;2023-04-06T07:05:57;99192.41;;;1.30;74.66
25664;BME280;13522;50.018;20.014;2023-04-06T07:09:09;99193.02;;;1.35;74.60
25664;BME280;13522;50.018;20.014;2023-04-06T07:12:21;99190.88;;;1.43;73.94
25664;BME280;13522;50.018;20.014;2023-04-06T07:15:34;99193.95;;;1.51;72.78
25664;BME280;13522;50.018;20.014;2023-04-06T07:18:46;99194.98;;;1.48;72.75
25664;BME280;13522;50.018;20.014;2023-04-06T07:24:59;99197.50;;;1.67;73.05
25664;BME280;13522;50.018;20.014;2023-04-06T07:28:12;99194.58;;;1.73;71.57
25664;BME280;13522;50.018;20.014;2023-04-06T07:31:25;99196.48;;;1.87;71.78
25664;BME280;13522;50.018;20.014;2023-04-06T07:34:38;99192.02;;;2.06;71.86
25664;BME280;13522;50.018;20.014;2023-04-06T07:37:52;99193.47;;;1.94;69.88
25664;BME280;13522;50.018;20.014;2023-04-06T07:41:06;99196.12;;;1.77;70.49
25664;BME280;13522;50.018;20.014;2023-04-06T07:44:18;99185.50;;;1.80;70.04
25664;BME280;13522;50.018;20.014;2023-04-06T07:47:31;99195.49;;;1.89;69.95
25664;BME280;13522;50.018;20.014;2023-04-06T07:50:44;99186.06;;;2.02;69.79
25664;BME280;13522;50.018;20.014;2023-04-06T07:53:56;99181.09;;;1.98;69.21
25664;BME280;13522;50.018;20.014;2023-04-06T07:57:09;99188.34;;;1.75;69.01
25664;BME280;13522;50.018;20.014;2023-04-06T08:00:24;99190.20;;;1.73;68.52
25664;BME280;13522;50.018;20.014;2023-04-06T08:03:36;99183.48;;;1.85;69.52
25664;BME280;13522;50.018;20.014;2023-04-06T08:06:50;99173.05;;;2.01;69.68
25664;BME280;13522;50.018;20.014;2023-04-06T08:10:06;99167.20;;;2.28;67.25
25664;BME280;13522;50.018;20.014;2023-04-06T08:35:00;99151.58;;;3.05;65.32
25664;BME280;13522;50.018;20.014;2023-04-06T08:38:12;99108.91;;;3.31;64.88
25664;BME280;13522;50.018;20.014;2023-04-06T08:47:25;99135.52;;;3.25;63.45
25664;BME280;13522;50.018;20.014;2023-04-06T08:53:38;99127.23;;;3.76;62.01
25664;BME280;13522;50.018;20.014;2023-04-06T08:56:51;99124.59;;;3.90;63.59
25664;BME280;13522;50.018;20.014;2023-04-06T09:00:07;99125.52;;;3.31;63.21
25664;BME280;13522;50.018;20.014;2023-04-06T09:03:23;99128.38;;;2.97;64.39
25664;BME280;13522;50.018;20.014;2023-04-06T09:22:04;99123.86;;;2.85;65.66
25664;BME280;13522;50.018;20.014;2023-04-06T09:50:27;99100.92;;;2.89;68.00
25664;BME280;13522;50.018;20.014;2023-04-06T10:18:30;99096.84;;;2.99;74.25
25664;BME280;13522;50.018;20.014;2023-04-06T10:37:11;99102.45;;;2.15;93.52
25664;BME280;13522;50.018;20.014;2023-04-06T10:40:26;99104.42;;;1.94;92.34
25664;BME280;13522;50.018;20.014;2023-04-06T10:43:40;99103.30;;;2.15;94.19
25664;BME280;13522;50.018;20.014;2023-04-06T10:46:57;99097.39;;;2.12;92.35
25664;BME280;13522;50.018;20.014;2023-04-06T10:56:13;99082.92;;;2.36;93.04
25664;BME280;13522;50.018;20.014;2023-04-06T11:02:27;99079.14;;;2.41;93.61
25664;BME280;13522;50.018;20.014;2023-04-06T11:14:40;99078.11;;;2.28;95.52
25664;BME280;13522;50.018;20.014;2023-04-06T11:17:52;99078.11;;;2.28;97.14
25664;BME280;13522;50.018;20.014;2023-04-06T11:27:04;99073.94;;;1.93;99.81
25664;BME280;13522;50.018;20.014;2023-04-06T11:33:23;99062.03;;;1.88;100.00
25664;BME280;13522;50.018;20.014;2023-04-06T11:39:46;99076.56;;;1.93;100.00
25664;BME280;13522;50.018;20.014;2023-04-06T11:43:00;99070.13;;;1.83;100.00
25664;BME280;13522;50.018;20.014;2023-04-06T11:46:16;99070.38;;;1.94;100.00
25664;BME280;13522;50.018;20.014;2023-04-06T11:49:28;99069.29;;;1.98;100.00
25664;BME280;13522;50.018;20.014;2023-04-06T11:55:41;99065.77;;;2.15;100.00
25664;BME280;13522;50.018;20.014;2023-04-06T11:58:53;99065.95;;;2.27;100.00
25664;BME280;13522;50.018;20.014;2023-04-06T12:02:06;99054.95;;;2.21;100.00
25664;BME280;13522;50.018;20.014;2023-04-06T12:05:19;99056.70;;;1.89;100.00
25664;BME280;13522;50.018;20.014;2023-04-06T12:08:31;99055.94;;;1.87;100.00
25664;BME280;13522;50.018;20.014;2023-04-06T12:11:44;99046.73;;;1.80;100.00
25664;BME280;13522;50.018;20.014;2023-04-06T12:14:56;99052.80;;;1.81;100.00
25664;BME280;13522;50.018;20.014;2023-04-06T12:18:10;99050.19;;;1.96;100.00
25664;BME280;13522;50.018;20.014;2023-04-06T12:21:22;99055.43;;;1.96;100.00
25664;BME280;13522;50.018;20.014;2023-04-06T12:27:35;99057.80;;;1.85;100.00
25664;BME280;13522;50.018;20.014;2023-04-06T12:30:47;99048.34;;;1.98;100.00
25664;BME280;13522;50.018;20.014;2023-04-06T12:34:00;99045.81;;;1.97;100.00
25664;BME280;13522;50.018;20.014;2023-04-06T12:37:13;99039.90;;;1.93;100.00
25664;BME280;13522;50.018;20.014;2023-04-06T12:40:26;99032.38;;;2.03;100.00
25664;BME280;13522;50.018;20.014;2023-04-06T12:43:52;99030.77;;;2.00;100.00
25664;BME280;13522;50.018;20.014;2023-04-06T12:47:06;99031.09;;;1.94;100.00
25664;BME280;13522;50.018;20.014;2023-04-06T12:56:19;99021.75;;;1.90;100.00
25664;BME280;13522;50.018;20.014;2023-04-06T13:02:33;99027.39;;;1.98;100.00
25664;BME280;13522;50.018;20.014;2023-04-06T13:05:46;99016.76;;;2.01;100.00
25664;BME280;13522;50.018;20.014;2023-04-06T13:08:59;99006.62;;;1.95;100.00
25664;BME280;13522;50.018;20.014;2023-04-06T13:12:13;98997.81;;;1.96;100.00
25664;BME280;13522;50.018;20.014;2023-04-06T13:15:26;99000.62;;;1.93;100.00
25664;BME280;13522;50.018;20.014;2023-04-06T13:18:40;98995.14;;;1.98;100.00
25664;BME280;13522;50.018;20.014;2023-04-06T13:21:54;98987.19;;;1.99;100.00
25664;BME280;13522;50.018;20.014;2023-04-06T13:31:07;98986.67;;;1.77;100.00
25664;BME280;13522;50.018;20.014;2023-04-06T13:34:19;98995.13;;;1.82;100.00
25664;BME280;13522;50.018;20.014;2023-04-06T13:37:34;98995.28;;;1.79;100.00
25664;BME280;13522;50.018;20.014;2023-04-06T13:40:47;98990.38;;;1.73;100.00
25664;BME280;13522;50.018;20.014;2023-04-06T13:44:01;98989.72;;;1.85;100.00
25664;BME280;13522;50.018;20.014;2023-04-06T13:47:13;98986.95;;;1.88;100.00
25664;BME280;13522;50.018;20.014;2023-04-06T13:50:28;98982.72;;;1.86;100.00
25664;BME280;13522;50.018;20.014;2023-04-06T13:53:42;98986.67;;;1.93;100.00
25664;BME280;13522;50.018;20.014;2023-04-06T13:56:57;98990.81;;;1.81;100.00
25664;BME280;13522;50.018;20.014;2023-04-06T14:00:12;98984.33;;;1.88;100.00
25664;BME280;13522;50.018;20.014;2023-04-06T14:03:26;98993.52;;;1.95;100.00
25664;BME280;13522;50.018;20.014;2023-04-06T14:06:41;98988.47;;;1.92;100.00
25664;BME280;13522;50.018;20.014;2023-04-06T14:09:54;98987.52;;;1.93;100.00
25664;BME280;13522;50.018;20.014;2023-04-06T14:16:08;98995.38;;;1.93;100.00
25664;BME280;13522;50.018;20.014;2023-04-06T14:19:20;98998.42;;;2.01;100.00
25664;BME280;13522;50.018;20.014;2023-04-06T14:22:32;98994.09;;;2.00;100.00
25664;BME280;13522;50.018;20.014;2023-04-06T14:25:44;98992.42;;;1.99;100.00
25664;BME280;13522;50.018;20.014;2023-04-06T14:28:57;98994.95;;;2.01;100.00
25664;BME280;13522;50.018;20.014;2023-04-06T14:32:10;98998.24;;;2.04;100.00
25664;BME280;13522;50.018;20.014;2023-04-06T14:35:24;98995.47;;;2.07;100.00
25664;BME280;13522;50.018;20.014;2023-04-06T14:38:38;98997.14;;;2.08;100.00
25664;BME280;13522;50.018;20.014;2023-04-06T14:41:52;99004.85;;;2.11;100.00
25664;BME280;13522;50.018;20.014;2023-04-06T14:45:05;99003.91;;;2.12;100.00
25664;BME280;13522;50.018;20.014;2023-04-06T14:48:18;99002.05;;;2.14;100.00
25664;BME280;13522;50.018;20.014;2023-04-06T14:51:30;98994.60;;;2.22;100.00
25664;BME280;13522;50.018;20.014;2023-04-06T14:54:43;98995.45;;;2.23;100.00
25664;BME280;13522;50.018;20.014;2023-04-06T14:57:55;98999.18;;;2.19;100.00
25664;BME280;13522;50.018;20.014;2023-04-06T15:01:07;99000.03;;;2.19;100.00
25664;BME280;13522;50.018;20.014;2023-04-06T15:04:19;99002.89;;;2.15;100.00
25664;BME280;13522;50.018;20.014;2023-04-06T15:07:32;98995.36;;;2.24;100.00
25664;BME280;13522;50.018;20.014;2023-04-06T15:10:44;98999.41;;;2.30;100.00
25664;BME280;13522;50.018;20.014;2023-04-06T15:13:56;98998.17;;;2.21;100.00
25664;BME280;13522;50.018;20.014;2023-04-06T15:17:09;98996.65;;;2.17;100.00
25664;BME280;13522;50.018;20.014;2023-04-06T15:20:21;98995.47;;;2.07;100.00
25664;BME280;13522;50.018;20.014;2023-04-06T15:23:33;98994.61;;;2.07;100.00
25664;BME280;13522;50.018;20.014;2023-04-06T15:26:45;98989.28;;;2.08;100.00
25664;BME280;13522;50.018;20.014;2023-04-06T15:29:57;98992.66;;;2.10;100.00
25664;BME280;13522;50.018;20.014;2023-04-06T15:33:09;98994.95;;;2.01;100.00
25664;BME280;13522;50.018;20.014;2023-04-06T15:36:25;98989.20;;;1.94;100.00
25664;BME280;13522;50.018;20.014;2023-04-06T15:39:38;98993.52;;;1.95;100.00
25664;BME280;13522;50.018;20.014;2023-04-06T15:42:51;99002.38;;;2.08;100.00
25664;BME280;13522;50.018;20.014;2023-04-06T15:46:03;98977.48;;;1.86;100.00
25664;BME280;13522;50.018;20.014;2023-04-06T15:49:15;99003.05;;;1.96;100.00
25664;BME280;13522;50.018;20.014;2023-04-06T15:52:27;98999.09;;;1.89;100.00
25664;BME280;13522;50.018;20.014;2023-04-06T15:55:39;98998.42;;;1.86;100.00
25664;BME280;13522;50.018;20.014;2023-04-06T15:58:51;98998.66;;;1.81;100.00
25664;BME280;13522;50.018;20.014;2023-04-06T16:02:04;99008.45;;;1.62;100.00
25664;BME280;13522;50.018;20.014;2023-04-06T16:05:17;99003.70;;;1.68;100.00
25664;BME280;13522;50.018;20.014;2023-04-06T16:08:29;98999.33;;;1.69;100.00
25664;BME280;13522;50.018;20.014;2023-04-06T16:11:41;99010.97;;;1.63;100.00
25664;BME280;13522;50.018;20.014;2023-04-06T16:14:53;99001.03;;;1.70;100.00
25664;BME280;13522;50.018;20.014;2023-04-06T16:18:06;98998.56;;;1.67;100.00
25664;BME280;13522;50.018;20.014;2023-04-06T16:21:18;98998.47;;;1.68;100.00
25664;BME280;13522;50.018;20.014;2023-04-06T16:24:31;98998.47;;;1.68;100.00
25664;BME280;13522;50.018;20.014;2023-04-06T16:27:44;98999.65;;;1.63;100.00
25664;BME280;13522;50.018;20.014;2023-04-06T16:30:56;98996.45;;;1.58;100.00
25664;BME280;13522;50.018;20.014;2023-04-06T16:34:08;99005.20;;;1.57;100.00
25664;BME280;13522;50.018;20.014;2023-04-06T16:37:21;98999.48;;;1.50;100.00
25664;BME280;13522;50.018;20.014;2023-04-06T16:40:34;99006.48;;;1.50;100.00
25664;BME280;13522;50.018;20.014;2023-04-06T16:43:47;99001.48;;;1.45;100.00
25664;BME280;13522;50.018;20.014;2023-04-06T16:47:00;98998.72;;;1.48;100.00
25664;BME280;13522;50.018;20.014;2023-04-06T16:50:13;99000.48;;;1.48;100.00
25664;BME280;13522;50.018;20.014;2023-04-06T16:53:25;98994.80;;;1.40;100.00
25664;BME280;13522;50.018;20.014;2023-04-06T16:56:37;98989.71;;;1.37;100.00
25664;BME280;13522;50.018;20.014;2023-04-06T16:59:49;98986.42;;;1.33;100.00
25664;BME280;13522;50.018;20.014;2023-04-06T17:03:01;98993.36;;;1.34;100.00
25664;BME280;13522;50.018;20.014;2023-04-06T17:06:14;98977.04;;;1.29;100.00
25664;BME280;13522;50.018;20.014;2023-04-06T17:09:26;98990.13;;;1.29;100.00
25664;BME280;13522;50.018;20.014;2023-04-06T17:12:39;98987.68;;;1.26;100.00
25664;BME280;13522;50.018;20.014;2023-04-06T17:15:51;98991.97;;;1.27;100.00
25664;BME280;13522;50.018;20.014;2023-04-06T17:19:03;98989.63;;;1.23;100.00
25664;BME280;13522;50.018;20.014;2023-04-06T17:22:16;98987.91;;;1.22;100.00
25664;BME280;13522;50.018;20.014;2023-04-06T17:25:29;98987.91;;;1.22;100.00
25664;BME280;13522;50.018;20.014;2023-04-06T17:28:42;98990.44;;;1.23;100.00
25664;BME280;13522;50.018;20.014;2023-04-06T17:31:54;98989.63;;;1.23;100.00
25664;BME280;13522;50.018;20.014;2023-04-06T17:35:08;98985.52;;;1.17;100.00
25664;BME280;13522;50.018;20.014;2023-04-06T17:38:21;98983.00;;;1.16;100.00
25664;BME280;13522;50.018;20.014;2023-04-06T17:41:33;98995.17;;;1.17;100.00
25664;BME280;13522;50.018;20.014;2023-04-06T17:44:45;98994.14;;;1.19;100.00
25664;BME280;13522;50.018;20.014;2023-04-06T17:47:58;98997.70;;;1.18;100.00
25664;BME280;13522;50.018;20.014;2023-04-06T17:51:13;98997.92;;;1.14;100.00
25664;BME280;13522;50.018;20.014;2023-04-06T17:54:26;98991.70;;;1.16;100.00
25664;BME280;13522;50.018;20.014;2023-04-06T17:57:38;98991.78;;;1.15;100.00
25664;BME280;13522;50.018;20.014;2023-04-06T18:00:52;98995.17;;;1.17;100.00
25664;BME280;13522;50.018;20.014;2023-04-06T18:04:04;99002.08;;;1.18;100.00
25664;BME280;13522;50.018;20.014;2023-04-06T18:07:17;98999.31;;;1.21;100.00
25664;BME280;13522;50.018;20.014;2023-04-06T18:10:29;99001.75;;;1.24;100.00
25664;BME280;13522;50.018;20.014;2023-04-06T18:13:42;99005.37;;;1.21;100.00
25664;BME280;13522;50.018;20.014;2023-04-06T18:16:54;98997.84;;;1.15;100.00
25664;BME280;13522;50.018;20.014;2023-04-06T18:20:10;98996.93;;;1.16;100.00
25664;BME280;13522;50.018;20.014;2023-04-06T18:23:22;98996.70;;;1.21;100.00
25664;BME280;13522;50.018;20.014;2023-04-06T18:26:35;99001.93;;;1.21;100.00
25664;BME280;13522;50.018;20.014;2023-04-06T18:29:47;98996.70;;;1.21;100.00
25664;BME280;13522;50.018;20.014;2023-04-06T18:32:59;98987.55;;;1.12;100.00
25664;BME280;13522;50.018;20.014;2023-04-06T18:36:13;98985.30;;;1.22;100.00
25664;BME280;13522;50.018;20.014;2023-04-06T18:39:35;98991.38;;;1.22;100.00
25664;BME280;13522;50.018;20.014;2023-04-06T18:42:52;98986.30;;;1.19;100.00
25664;BME280;13522;50.018;20.014;2023-04-06T18:53:02;98989.77;;;1.20;100.00
25664;BME280;13522;50.018;20.014;2023-04-06T18:56:43;98977.45;;;1.22;100.00
25664;BME280;13522;50.018;20.014;2023-04-06T18:59:56;98974.83;;;1.22;100.00
25664;BME280;13522;50.018;20.014;2023-04-06T19:03:09;98978.63;;;1.16;100.00
25664;BME280;13522;50.018;20.014;2023-04-06T19:06:23;98978.53;;;1.18;100.00
25664;BME280;13522;50.018;20.014;2023-04-06T19:09:36;98976.86;;;1.17;100.00
25664;BME280;13522;50.018;20.014;2023-04-06T19:12:48;98975.15;;;1.16;100.00
25664;BME280;13522;50.018;20.014;2023-04-06T19:19:09;98965.95;;;1.09;100.00
25664;BME280;13522;50.018;20.014;2023-04-06T19:22:21;98963.33;;;1.09;100.00
25664;BME280;13522;50.018;20.014;2023-04-06T19:56:44;98944.72;;;0.98;100.00
25664;BME280;13522;50.018;20.014;2023-04-06T20:02:57;98940.06;;;0.87;100.00
25664;BME280;13522;50.018;20.014;2023-04-06T20:06:10;98958.56;;;1.00;100.00
25664;BME280;13522;50.018;20.014;2023-04-06T20:09:23;98956.03;;;0.98;100.00
25664;BME280;13522;50.018;20.014;2023-04-06T20:15:35;98951.80;;;0.96;100.00
25664;BME280;13522;50.018;20.014;2023-04-06T20:37:18;98943.95;;;0.96;100.00
25664;BME280;13522;50.018;20.014;2023-04-06T20:43:33;98945.80;;;0.94;100.00
25664;BME280;13522;50.018;20.014;2023-04-06T20:47:01;98927.59;;;0.92;100.00
25664;BME280;13522;50.018;20.014;2023-04-06T20:50:13;98931.97;;;0.92;100.00
25664;BME280;13522;50.018;20.014;2023-04-06T20:53:26;98925.06;;;0.91;100.00
25664;BME280;13522;50.018;20.014;2023-04-06T20:56:38;98924.97;;;0.92;100.00
25664;BME280;13522;50.018;20.014;2023-04-06T20:59:51;98927.45;;;0.95;100.00
25664;BME280;13522;50.018;20.014;2023-04-06T21:03:03;98929.34;;;0.92;100.00
25664;BME280;13522;50.018;20.014;2023-04-06T21:06:16;98928.44;;;0.93;100.00
25664;BME280;13522;50.018;20.014;2023-04-06T21:09:28;98924.89;;;0.94;100.00
25664;BME280;13522;50.018;20.014;2023-04-06T21:12:40;98928.27;;;0.96;100.00
25664;BME280;13522;50.018;20.014;2023-04-06T21:15:52;98931.50;;;1.01;100.00
25664;BME280;13522;50.018;20.014;2023-04-06T21:19:05;98925.66;;;0.96;100.00
25664;BME280;13522;50.018;20.014;2023-04-06T21:22:17;98923.13;;;0.94;100.00
25664;BME280;13522;50.018;20.014;2023-04-06T21:25:29;98923.21;;;0.93;100.00
25664;BME280;13522;50.018;20.014;2023-04-06T21:28:41;98911.22;;;0.88;100.00
25664;BME280;13522;50.018;20.014;2023-04-06T21:31:53;98909.38;;;0.91;100.00
25664;BME280;13522;50.018;20.014;2023-04-06T21:35:07;98911.05;;;0.92;100.00
25664;BME280;13522;50.018;20.014;2023-04-06T21:38:20;98904.29;;;0.87;100.00
25664;BME280;13522;50.018;20.014;2023-04-06T21:41:33;98904.29;;;0.87;100.00
25664;BME280;13522;50.018;20.014;2023-04-06T21:44:45;98906.84;;;0.89;100.00
25664;BME280;13522;50.018;20.014;2023-04-06T21:47:57;98906.91;;;0.87;100.00
25664;BME280;13522;50.018;20.014;2023-04-06T21:51:16;98900.91;;;0.85;100.00
25664;BME280;13522;50.018;20.014;2023-04-06T21:54:32;98904.15;;;0.91;100.00
25664;BME280;13522;50.018;20.014;2023-04-06T21:57:44;98897.22;;;0.89;100.00
25664;BME280;13522;50.018;20.014;2023-04-06T22:00:56;98891.98;;;0.89;100.00
25664;BME280;13522;50.018;20.014;2023-04-06T22:04:08;98890.22;;;0.90;100.00
25664;BME280;13522;50.018;20.014;2023-04-06T22:07:21;98885.98;;;0.87;100.00